Wellington, CO

11:03 PM MST on December 07, 2016 (GMT -0700)
Wellington | | Change Station

Elev 5098 ft 40.71 °N, 105.01 °W | Updated 20 seconds ago

Partly Cloudy
Partly Cloudy
-8.3 °F
Feels Like -8 °F
N
2.7
Wind Variable Wind from NE

Today
High -- | Low -- °F
--% Chance of Precip.
Yesterday
High -- | Low -- °F
Precip. -- in
Pressure 30.42 in
Visibility 10.0 miles
Clouds Clear
Windchill -8 °F
Dew Point -11 °F
Humidity 86%
Rainfall 0.00 in
Snow Depth Not available.
7:10 AM 4:32 PM
First Quarter, 60% visible
METAR KFNL 080555Z AUTO 17004KT 10SM CLR M17/M18 A3042 RMK AO1 11130 21170 52014
Pressure 30.42 in
Visibility 10.0 miles
Clouds Clear
Windchill -8 °F
Dew Point -11 °F
Humidity 86%
Rainfall 0.00 in
Snow Depth Not available.
7:10 AM 4:32 PM
First Quarter, 60% visible
METAR KFNL 080555Z AUTO 17004KT 10SM CLR M17/M18 A3042 RMK AO1 11130 21170 52014

10-Day Weather Forecast

Almanac

Astronomy

Dec. 07, 2016 Rise Set
Actual Time
Civil Twilight
Nautical Twilight
Astronomical Twilight
Moon
Length of Visible Light
Length of Day
Tomorrow will be .
, % of the Moon is Illuminated

Today's Extremes

State Highs State Lows

Community

WunderPhotos

Upload Photos

1,956,259 photos uploaded!

WunderBlog® & News

Nearby

Air Quality

  Air Quality AQ Index Pollutant
Not available.

Snow Depth

Station Depth Elevation

Earthquake Activity

City Distance Mag. Time & Date
Minimum magnitude displayed is 2.5.

Coastal Water Temperatures

Place Temperature

Stations

Nearby Weather Stations

Station Location Temp. Windchill Dew Point Humidity Wind Precip. Elev Updated Type
                   

Watches & Warnings

There are currently no watches in effect.